Time;durP1;ratioP1;P1;durP2;ratioP2;P2;SDS_P1;SDS_P2;PMS_P1;PMS_P2;Temp;Humidity;BMP_temperature;BMP_pressure;BME280_temperature;BME280_humidity;BME280_pressure;Samples;Min_cycle;Max_cycle;Signal;HPM_P1;HPM_P2
2021/12/12 00:00:14;;;;;;;7.90;7.10;;;8.20;99.80;;;;;;5070428;28;20494;-68
2021/12/12 00:02:56;;;;;;;8.60;6.23;;;8.20;99.60;;;;;;5074089;28;20478;-68
2021/12/12 00:05:36;;;;;;;9.40;7.37;;;8.10;99.60;;;;;;5073572;28;20439;-69
2021/12/12 00:08:03;;;;;;;10.13;6.73;;;8.10;99.70;;;;;;5059093;28;20411;-75
2021/12/12 00:10:32;;;;;;;6.90;6.13;;;8.10;99.30;;;;;;5074998;28;20418;-68
2021/12/12 00:13:04;;;;;;;7.50;6.30;;;8.10;99.60;;;;;;5074907;28;20753;-68
2021/12/12 00:15:30;;;;;;;7.90;6.70;;;8.00;99.60;;;;;;5075308;28;20954;-69
2021/12/12 00:17:57;;;;;;;8.33;6.97;;;8.10;99.70;;;;;;5074831;28;20439;-68
2021/12/12 00:20:27;;;;;;;7.10;6.50;;;8.20;99.70;;;;;;5074094;28;21099;-68
2021/12/12 00:22:58;;;;;;;8.73;6.70;;;8.20;99.50;;;;;;5074494;28;20923;-68
2021/12/12 00:25:33;;;;;;;6.40;5.80;;;8.10;99.30;;;;;;5073797;28;20781;-68
2021/12/12 00:27:59;;;;;;;8.47;6.27;;;8.10;99.60;;;;;;5074498;28;20410;-68
2021/12/12 00:30:26;;;;;;;10.60;7.47;;;8.20;99.60;;;;;;5072126;28;20779;-68
2021/12/12 00:32:53;;;;;;;7.77;6.00;;;8.20;99.40;;;;;;5073108;28;20493;-68
2021/12/12 00:35:20;;;;;;;9.53;6.40;;;8.20;99.30;;;;;;5073752;28;20415;-68
2021/12/12 00:37:50;;;;;;;7.17;6.00;;;8.20;99.20;;;;;;5067297;28;20431;-70
2021/12/12 00:40:24;;;;;;;8.07;5.83;;;8.30;99.10;;;;;;5053450;28;20424;-68
2021/12/12 00:42:55;;;;;;;8.47;6.87;;;8.20;99.00;;;;;;5053311;28;20421;-68
2021/12/12 00:45:22;;;;;;;139.37;85.23;;;8.30;99.10;;;;;;5053507;28;21436;-68
2021/12/12 00:47:49;;;;;;;176.00;106.03;;;8.30;99.00;;;;;;5065748;28;20435;-69
2021/12/12 00:50:32;;;;;;;17.03;11.70;;;8.40;99.10;;;;;;5074170;28;20418;-68
2021/12/12 00:53:00;;;;;;;8.60;6.50;;;8.30;98.90;;;;;;5072515;28;20476;-68
2021/12/12 00:55:26;;;;;;;8.70;6.27;;;8.30;98.80;;;;;;5059958;28;20658;-68
2021/12/12 00:57:54;;;;;;;8.00;6.80;;;8.30;98.90;;;;;;5073581;28;20434;-70
2021/12/12 01:00:36;;;;;;;6.47;5.90;;;8.30;98.90;;;;;;5066259;28;20436;-68
2021/12/12 01:03:03;;;;;;;6.83;6.03;;;8.20;99.10;;;;;;5072604;28;20412;-69
2021/12/12 01:05:29;;;;;;;9.53;5.77;;;8.10;99.10;;;;;;5070901;28;20516;-68
2021/12/12 01:07:56;;;;;;;8.33;5.93;;;8.10;99.30;;;;;;5072591;28;20918;-69
2021/12/12 01:10:27;;;;;;;7.53;5.90;;;8.20;99.40;;;;;;5072428;28;20917;-68
2021/12/12 01:12:55;;;;;;;7.10;5.80;;;8.10;99.10;;;;;;5072822;28;20434;-68
2021/12/12 01:15:53;;;;;;;6.00;5.50;;;8.00;99.10;;;;;;5072688;28;20903;-68
2021/12/12 01:18:25;;;;;;;7.10;6.40;;;8.00;99.10;;;;;;5048965;28;20431;-68
2021/12/12 01:20:58;;;;;;;6.40;5.80;;;8.10;99.20;;;;;;5072669;28;20409;-68
2021/12/12 01:23:39;;;;;;;8.30;6.80;;;8.10;99.20;;;;;;5071664;28;20477;-68
2021/12/12 01:26:07;;;;;;;6.17;5.53;;;8.00;99.30;;;;;;5072114;28;20517;-72
2021/12/12 01:28:37;;;;;;;9.10;8.20;;;8.00;99.10;;;;;;5092624;28;20426;-68
2021/12/12 01:31:07;;;;;;;8.70;5.60;;;8.00;99.20;;;;;;5093280;28;20450;-69
2021/12/12 01:33:35;;;;;;;6.33;4.83;;;8.00;99.40;;;;;;5094269;28;20409;-68
2021/12/12 01:36:27;;;;;;;7.93;5.40;;;8.00;99.30;;;;;;5094038;28;20434;-68
2021/12/12 01:38:56;;;;;;;5.47;4.97;;;7.70;99.40;;;;;;5093748;28;20411;-68
2021/12/12 01:41:37;;;;;;;10.43;6.93;;;7.70;99.80;;;;;;5090199;28;20441;-69
2021/12/12 01:44:15;;;;;;;5.87;5.10;;;7.70;99.90;;;;;;5051942;28;20468;-68
2021/12/12 01:46:50;;;;;;;7.03;4.90;;;7.50;99.90;;;;;;5053298;28;20452;-69
2021/12/12 01:49:20;;;;;;;6.50;5.43;;;7.50;99.90;;;;;;5052478;28;20463;-68
2021/12/12 01:51:47;;;;;;;7.00;4.47;;;7.70;99.90;;;;;;5053276;28;20400;-68
2021/12/12 01:54:17;;;;;;;4.87;4.30;;;7.70;99.90;;;;;;5052376;28;20407;-69
2021/12/12 01:56:53;;;;;;;6.20;5.07;;;7.70;99.80;;;;;;5053650;28;20478;-69
2021/12/12 01:59:22;;;;;;;8.30;4.77;;;7.80;99.60;;;;;;5072251;28;20424;-68
2021/12/12 02:01:55;;;;;;;5.03;4.63;;;7.80;99.60;;;;;;5072540;28;20427;-68
2021/12/12 02:04:26;;;;;;;6.90;4.50;;;7.80;99.50;;;;;;5072212;28;20795;-68
2021/12/12 02:06:54;;;;;;;6.53;4.30;;;7.80;99.40;;;;;;5072928;28;20484;-68
2021/12/12 02:09:23;;;;;;;6.00;4.70;;;7.90;99.40;;;;;;5070854;28;20415;-68
2021/12/12 02:11:52;;;;;;;7.77;5.17;;;7.80;99.30;;;;;;5071601;28;20411;-68
2021/12/12 02:14:20;;;;;;;5.27;4.77;;;7.90;99.10;;;;;;5051864;28;20501;-69
2021/12/12 02:16:53;;;;;;;4.63;4.20;;;8.00;99.10;;;;;;5051473;28;20468;-68
2021/12/12 02:19:29;;;;;;;4.77;4.20;;;8.00;99.00;;;;;;5051955;28;20404;-68
2021/12/12 02:22:10;;;;;;;5.83;5.10;;;8.10;99.00;;;;;;5052586;28;20411;-68
2021/12/12 02:35:48;;;;;;;5.60;5.07;;;7.70;99.20;;;;;;5051377;28;20418;-68
2021/12/12 02:38:27;;;;;;;10.80;5.33;;;7.70;99.10;;;;;;5051735;28;20407;-69
2021/12/12 02:40:58;;;;;;;8.03;4.83;;;7.70;99.30;;;;;;5052403;28;20418;-68
2021/12/12 02:43:27;;;;;;;5.77;4.67;;;7.80;99.40;;;;;;5051578;28;20475;-68
2021/12/12 02:45:56;;;;;;;11.50;5.80;;;7.90;99.30;;;;;;5050864;28;20473;-68
2021/12/12 02:48:28;;;;;;;6.23;4.87;;;7.90;99.00;;;;;;5065208;28;20427;-68
2021/12/12 02:50:57;;;;;;;6.77;5.43;;;8.00;98.80;;;;;;5071998;28;20415;-68
2021/12/12 02:53:30;;;;;;;8.90;4.93;;;8.00;98.80;;;;;;5071030;28;20408;-68
2021/12/12 02:56:04;;;;;;;5.13;4.73;;;8.00;98.70;;;;;;5071918;28;20481;-68
2021/12/12 02:58:30;;;;;;;5.10;4.60;;;8.00;98.60;;;;;;5070078;28;20587;-69
2021/12/12 03:01:09;;;;;;;6.90;4.20;;;8.10;98.60;;;;;;5070833;28;20909;-68
2021/12/12 03:03:37;;;;;;;6.20;5.00;;;8.10;98.40;;;;;;5071731;28;20883;-69
2021/12/12 03:06:05;;;;;;;5.87;4.80;;;8.00;98.20;;;;;;5072007;28;20446;-68
2021/12/12 03:08:31;;;;;;;4.90;4.43;;;8.10;98.40;;;;;;5069937;28;20419;-68
2021/12/12 03:10:57;;;;;;;5.87;4.70;;;8.00;98.30;;;;;;5071828;28;20410;-68
2021/12/12 03:13:24;;;;;;;7.90;4.70;;;8.00;98.50;;;;;;5070798;28;20435;-69
2021/12/12 03:15:51;;;;;;;6.00;5.17;;;8.10;98.60;;;;;;5070591;28;20423;-68
2021/12/12 03:18:28;;;;;;;5.83;5.20;;;8.10;98.60;;;;;;5071194;28;20416;-69
2021/12/12 03:21:00;;;;;;;6.30;4.47;;;8.20;98.60;;;;;;5072399;28;20396;-68
2021/12/12 03:23:29;;;;;;;6.03;4.77;;;8.20;98.50;;;;;;5070874;28;20414;-68
2021/12/12 03:26:03;;;;;;;4.30;3.90;;;8.20;98.40;;;;;;5071417;28;20471;-68
2021/12/12 03:28:32;;;;;;;5.03;4.60;;;8.20;98.60;;;;;;5070582;28;20554;-68
2021/12/12 03:31:01;;;;;;;4.20;3.90;;;8.20;98.30;;;;;;5071967;28;20445;-68
2021/12/12 03:33:30;;;;;;;7.73;4.63;;;8.20;98.40;;;;;;5071051;28;20436;-68
2021/12/12 03:35:59;;;;;;;6.43;4.93;;;8.20;98.50;;;;;;5070708;28;20423;-68
2021/12/12 03:38:29;;;;;;;6.37;4.40;;;8.20;98.30;;;;;;5071350;28;20518;-68
2021/12/12 03:40:57;;;;;;;4.97;4.30;;;8.20;98.40;;;;;;5070342;28;20919;-68
2021/12/12 03:43:24;;;;;;;5.83;4.27;;;8.20;98.50;;;;;;5070784;28;20436;-68
2021/12/12 03:45:50;;;;;;;6.00;3.80;;;8.30;98.50;;;;;;5071177;28;20987;-69
2021/12/12 03:48:30;;;;;;;5.37;4.50;;;8.30;98.50;;;;;;5049419;28;20466;-70
2021/12/12 03:51:00;;;;;;;5.13;4.63;;;8.40;98.40;;;;;;5051625;28;20419;-68
2021/12/12 03:53:28;;;;;;;6.20;4.53;;;8.40;98.50;;;;;;5049790;28;20832;-68
2021/12/12 03:55:55;;;;;;;5.57;4.30;;;8.40;98.30;;;;;;5051607;28;20507;-68
2021/12/12 03:58:22;;;;;;;5.37;4.17;;;8.50;98.60;;;;;;5051103;28;20853;-69
2021/12/12 04:01:04;;;;;;;6.40;4.20;;;8.50;98.60;;;;;;5050349;28;20496;-68
2021/12/12 04:03:30;;;;;;;8.30;4.27;;;8.50;98.70;;;;;;5050866;28;20424;-68
2021/12/12 04:06:00;;;;;;;4.70;4.23;;;8.50;98.50;;;;;;5054299;28;20459;-69
2021/12/12 04:08:28;;;;;;;8.50;4.40;;;8.50;98.60;;;;;;5071302;28;20971;-69
2021/12/12 04:10:54;;;;;;;7.57;3.90;;;8.50;98.60;;;;;;5074615;28;20423;-68
2021/12/12 04:13:20;;;;;;;4.60;4.20;;;8.50;98.50;;;;;;5074011;28;20418;-69
2021/12/12 04:15:51;;;;;;;7.07;4.47;;;8.50;98.60;;;;;;5075302;28;20427;-69
2021/12/12 04:18:24;;;;;;;5.80;4.00;;;8.40;98.40;;;;;;5074152;28;20388;-73
2021/12/12 04:20:50;;;;;;;4.50;4.10;;;8.40;98.90;;;;;;5073759;28;20505;-68
2021/12/12 04:23:21;;;;;;;13.83;5.13;;;8.50;99.20;;;;;;5074277;28;20921;-72
2021/12/12 04:25:47;;;;;;;5.97;4.67;;;8.50;99.50;;;;;;5073301;28;20976;-68
2021/12/12 04:28:14;;;;;;;7.90;4.50;;;8.30;99.50;;;;;;5056676;28;20427;-68
2021/12/12 04:30:40;;;;;;;5.10;4.27;;;8.30;99.60;;;;;;5052914;28;20174;-68
2021/12/12 04:33:08;;;;;;;5.50;4.50;;;8.10;99.90;;;;;;5054827;28;20569;-68
2021/12/12 04:35:35;;;;;;;6.57;4.27;;;8.20;99.90;;;;;;5052394;28;20482;-69
2021/12/12 04:38:03;;;;;;;7.10;4.20;;;8.20;99.90;;;;;;5054679;28;20507;-68
2021/12/12 04:40:32;;;;;;;6.43;4.33;;;8.10;99.90;;;;;;5053460;28;20472;-68
2021/12/12 04:42:59;;;;;;;5.23;4.43;;;8.10;99.90;;;;;;5054748;28;20413;-68
2021/12/12 04:45:40;;;;;;;4.97;4.00;;;7.90;99.90;;;;;;5051875;28;20492;-69
2021/12/12 04:51:17;;;;;;;5.30;4.33;;;8.00;99.90;;;;;;5094267;28;20748;-68
2021/12/12 04:53:54;;;;;;;6.30;4.00;;;8.00;99.90;;;;;;5094841;28;20394;-68
2021/12/12 04:56:30;;;;;;;4.70;3.87;;;8.10;99.90;;;;;;5093901;28;20410;-73
2021/12/12 04:59:07;;;;;;;9.87;4.67;;;8.10;99.90;;;;;;5094285;28;20732;-68
2021/12/12 05:01:35;;;;;;;8.10;4.47;;;8.00;99.90;;;;;;5092374;28;20409;-68
2021/12/12 05:04:18;;;;;;;6.83;4.20;;;7.90;99.90;;;;;;5093021;28;20425;-68
2021/12/12 05:07:08;;;;;;;6.87;4.23;;;7.90;99.90;;;;;;5084058;28;20457;-68
2021/12/12 05:09:46;;;;;;;6.30;4.70;;;8.00;99.90;;;;;;5073508;28;20441;-68
2021/12/12 05:12:27;;;;;;;6.60;5.70;;;7.90;99.90;;;;;;5074059;28;20887;-68
2021/12/12 05:15:09;;;;;;;8.60;4.50;;;7.90;99.90;;;;;;5072226;28;20522;-68
2021/12/12 05:17:46;;;;;;;8.40;4.70;;;7.90;99.90;;;;;;5073107;28;20411;-68
2021/12/12 05:20:54;;;;;;;8.80;4.90;;;7.90;99.90;;;;;;5072649;28;20406;-68
2021/12/12 05:23:24;;;;;;;9.83;4.90;;;7.60;99.90;;;;;;4972084;28;20431;-72
2021/12/12 05:25:59;;;;;;;8.00;5.37;;;7.70;99.90;;;;;;4972311;28;20474;-68
2021/12/12 05:28:35;;;;;;;7.17;4.60;;;7.70;99.90;;;;;;5010535;28;20446;-69
2021/12/12 05:31:02;;;;;;;7.00;4.70;;;7.80;99.90;;;;;;5053658;28;20399;-68
2021/12/12 05:33:30;;;;;;;7.37;4.30;;;7.80;99.90;;;;;;5052571;28;20510;-69
2021/12/12 05:35:56;;;;;;;7.50;5.40;;;7.80;99.90;;;;;;5051687;28;20431;-68
2021/12/12 05:38:24;;;;;;;8.00;5.03;;;7.70;99.90;;;;;;5052695;28;20419;-73
2021/12/12 05:40:51;;;;;;;7.90;4.93;;;7.80;99.90;;;;;;5058134;28;20426;-68
2021/12/12 05:43:18;;;;;;;8.30;4.97;;;7.80;99.90;;;;;;5073063;28;20415;-68
2021/12/12 05:45:45;;;;;;;8.00;4.70;;;7.80;99.90;;;;;;5072952;28;20474;-69
2021/12/12 05:48:12;;;;;;;8.03;5.20;;;7.70;99.90;;;;;;5073515;28;20901;-68
2021/12/12 05:50:40;;;;;;;7.07;4.80;;;7.70;99.90;;;;;;5072413;28;20802;-68
2021/12/12 05:53:07;;;;;;;7.17;5.20;;;7.80;99.90;;;;;;5055199;28;20987;-68
2021/12/12 05:55:35;;;;;;;8.40;6.27;;;7.90;99.90;;;;;;5072384;28;20439;-69
2021/12/12 05:58:04;;;;;;;6.83;4.57;;;8.00;99.90;;;;;;5071771;28;20979;-68
2021/12/12 06:00:35;;;;;;;5.77;4.20;;;8.10;99.90;;;;;;5069699;28;20420;-69
2021/12/12 06:03:02;;;;;;;6.53;4.80;;;8.10;99.90;;;;;;5072825;28;20403;-68
2021/12/12 06:05:31;;;;;;;10.13;5.40;;;8.20;99.90;;;;;;5072075;28;20455;-69
2021/12/12 06:07:58;;;;;;;7.13;5.37;;;8.20;99.90;;;;;;5072874;28;20405;-68
2021/12/12 06:10:24;;;;;;;8.80;4.50;;;8.20;99.90;;;;;;5071876;28;20407;-73
2021/12/12 06:12:52;;;;;;;6.40;4.33;;;8.20;99.90;;;;;;5072804;28;20403;-68
2021/12/12 06:15:20;;;;;;;5.77;4.70;;;8.30;99.90;;;;;;5072910;28;20506;-68
2021/12/12 06:17:47;;;;;;;5.53;4.67;;;8.20;99.90;;;;;;5054401;28;20454;-69
2021/12/12 06:20:17;;;;;;;5.53;4.33;;;8.10;99.90;;;;;;5071367;28;20411;-68
2021/12/12 06:22:43;;;;;;;6.90;4.83;;;8.10;99.90;;;;;;5070782;28;20476;-68
2021/12/12 06:25:10;;;;;;;6.63;5.23;;;8.10;99.90;;;;;;5072751;28;20408;-69
2021/12/12 06:27:36;;;;;;;5.97;4.67;;;8.10;99.90;;;;;;5070835;28;20499;-68
2021/12/12 06:30:07;;;;;;;8.70;6.57;;;8.10;99.90;;;;;;5071467;28;20415;-70
2021/12/12 06:32:33;;;;;;;7.03;4.83;;;8.00;99.90;;;;;;5071824;28;20437;-68
2021/12/12 06:34:59;;;;;;;5.97;5.13;;;8.10;99.90;;;;;;5071959;28;20446;-68
2021/12/12 06:37:25;;;;;;;6.67;4.87;;;8.10;99.90;;;;;;5058627;28;20617;-72
2021/12/12 06:39:52;;;;;;;6.10;4.40;;;8.10;99.90;;;;;;5066695;28;20431;-68
2021/12/12 06:42:19;;;;;;;6.80;4.67;;;8.00;99.90;;;;;;5065238;28;20780;-68
2021/12/12 06:44:45;;;;;;;4.67;4.27;;;8.20;99.90;;;;;;5070893;28;20751;-69
2021/12/12 06:47:15;;;;;;;7.23;4.37;;;8.20;99.90;;;;;;5069335;28;20828;-68
2021/12/12 06:49:43;;;;;;;6.83;5.13;;;8.10;99.90;;;;;;5069467;28;20439;-68
2021/12/12 06:52:12;;;;;;;5.20;4.67;;;8.30;99.90;;;;;;5060888;28;20518;-68
2021/12/12 06:54:39;;;;;;;4.60;4.20;;;8.20;99.90;;;;;;5054850;28;20420;-68
2021/12/12 06:57:09;;;;;;;4.93;4.53;;;8.20;99.90;;;;;;5068073;28;20415;-68
2021/12/12 06:59:37;;;;;;;5.07;4.57;;;8.20;99.90;;;;;;5071417;28;20429;-69
2021/12/12 07:02:05;;;;;;;4.83;4.13;;;8.30;99.90;;;;;;5072462;28;20490;-68
2021/12/12 07:04:32;;;;;;;5.00;4.50;;;8.40;99.90;;;;;;5071669;28;20407;-68
2021/12/12 07:07:01;;;;;;;6.10;4.50;;;8.50;99.90;;;;;;5071823;28;20887;-68
2021/12/12 07:09:30;;;;;;;4.40;4.00;;;8.60;99.90;;;;;;5070123;28;20423;-68
2021/12/12 07:11:58;;;;;;;4.80;4.33;;;8.50;99.90;;;;;;5072164;28;20879;-70
2021/12/12 07:14:25;;;;;;;4.60;4.20;;;8.70;99.90;;;;;;5051923;28;20511;-73
2021/12/12 07:16:50;;;;;;;4.03;3.63;;;8.70;99.90;;;;;;5060144;28;20966;-69
2021/12/12 07:19:17;;;;;;;3.77;3.47;;;8.70;99.90;;;;;;5069963;28;20455;-69
2021/12/12 07:21:44;;;;;;;4.00;3.70;;;8.70;99.90;;;;;;5070469;28;20643;-69
2021/12/12 07:24:11;;;;;;;4.27;3.97;;;8.70;99.90;;;;;;5072145;28;20456;-69
2021/12/12 07:26:38;;;;;;;4.43;4.13;;;8.70;99.90;;;;;;5071423;28;20455;-70
2021/12/12 07:29:05;;;;;;;4.20;4.00;;;8.60;99.90;;;;;;5062692;28;20571;-69
2021/12/12 07:31:35;;;;;;;3.90;3.60;;;8.60;99.90;;;;;;5064923;28;20482;-69
2021/12/12 07:34:05;;;;;;;3.70;3.40;;;8.60;99.90;;;;;;5071897;28;20909;-69
2021/12/12 07:36:43;;;;;;;4.13;3.83;;;8.60;99.90;;;;;;5068591;28;20412;-70
2021/12/12 07:39:12;;;;;;;3.40;3.20;;;8.80;99.90;;;;;;5073034;28;20869;-70
2021/12/12 07:41:40;;;;;;;3.60;3.33;;;8.70;99.90;;;;;;5072799;28;20411;-70
2021/12/12 07:44:09;;;;;;;3.97;3.67;;;8.60;99.90;;;;;;5065385;28;20455;-70
2021/12/12 07:46:35;;;;;;;3.70;3.40;;;8.60;99.90;;;;;;5070752;28;20542;-70
2021/12/12 07:49:03;;;;;;;3.57;3.37;;;8.50;99.90;;;;;;5075849;28;20986;-69
2021/12/12 07:51:31;;;;;;;3.00;2.80;;;8.60;99.90;;;;;;5075172;28;20409;-70
2021/12/12 07:54:00;;;;;;;3.20;3.00;;;8.60;99.90;;;;;;5074664;28;20764;-69
2021/12/12 07:56:29;;;;;;;3.50;3.30;;;8.50;99.90;;;;;;5062023;28;20462;-72
2021/12/12 07:58:56;;;;;;;2.97;2.77;;;8.60;99.90;;;;;;5057493;28;20419;-69
2021/12/12 08:01:23;;;;;;;3.20;3.00;;;8.70;99.90;;;;;;5064642;28;20423;-70
2021/12/12 08:03:52;;;;;;;2.90;2.60;;;8.70;99.90;;;;;;5075073;28;20399;-70
2021/12/12 08:06:18;;;;;;;2.60;2.40;;;8.70;99.90;;;;;;5074415;28;20446;-69
2021/12/12 08:08:45;;;;;;;2.90;2.70;;;8.80;99.90;;;;;;5075027;28;20452;-70
2021/12/12 08:11:20;;;;;;;3.23;3.03;;;8.90;99.90;;;;;;5075425;28;20403;-70
2021/12/12 08:13:46;;;;;;;3.40;3.10;;;8.90;99.90;;;;;;5073972;28;20845;-69
2021/12/12 08:16:14;;;;;;;2.80;2.60;;;8.90;99.90;;;;;;5075394;28;20439;-69
2021/12/12 08:18:40;;;;;;;2.97;2.77;;;9.00;99.90;;;;;;5074394;28;20177;-69
2021/12/12 08:21:07;;;;;;;3.30;3.10;;;9.00;99.90;;;;;;5074178;28;20464;-71
2021/12/12 08:23:34;;;;;;;2.80;2.70;;;9.10;99.90;;;;;;5056108;28;20419;-69
2021/12/12 08:26:02;;;;;;;2.87;2.70;;;9.10;99.90;;;;;;5053830;28;20471;-69
2021/12/12 08:28:30;;;;;;;3.20;3.00;;;9.10;99.90;;;;;;5056000;28;20415;-74
2021/12/12 08:30:56;;;;;;;2.90;2.70;;;9.10;99.90;;;;;;5070342;28;20424;-71
2021/12/12 08:33:28;;;;;;;2.50;2.30;;;9.10;99.90;;;;;;5074569;28;20443;-70
2021/12/12 08:35:54;;;;;;;3.20;3.00;;;9.10;99.90;;;;;;5068237;28;20415;-70
2021/12/12 08:38:20;;;;;;;3.63;3.33;;;9.20;99.90;;;;;;5073757;28;20735;-70
2021/12/12 08:40:50;;;;;;;3.70;3.50;;;9.20;99.90;;;;;;5073161;28;20418;-70
2021/12/12 08:43:20;;;;;;;2.27;2.10;;;9.20;99.90;;;;;;5072709;28;20678;-71
2021/12/12 08:45:56;;;;;;;2.20;2.10;;;9.30;99.90;;;;;;5069898;28;20499;-71
2021/12/12 08:48:24;;;;;;;2.10;2.00;;;9.20;99.90;;;;;;5074901;28;20414;-70
2021/12/12 08:50:54;;;;;;;2.50;2.40;;;9.30;99.90;;;;;;5072211;28;20412;-70
2021/12/12 08:53:21;;;;;;;3.07;2.87;;;9.20;99.90;;;;;;5074816;28;20396;-70
2021/12/12 08:55:50;;;;;;;2.70;2.50;;;9.10;99.90;;;;;;5073821;28;20419;-70
2021/12/12 08:58:20;;;;;;;2.40;2.30;;;9.10;99.90;;;;;;5074381;28;20756;-70
2021/12/12 09:00:52;;;;;;;2.60;2.50;;;9.20;99.90;;;;;;5057292;28;20427;-71
2021/12/12 09:03:27;;;;;;;2.77;2.67;;;9.10;99.90;;;;;;5074033;28;20404;-70
2021/12/12 09:05:53;;;;;;;2.60;2.50;;;9.20;99.90;;;;;;5075061;28;20446;-70
2021/12/12 09:08:35;;;;;;;2.90;2.70;;;9.10;99.90;;;;;;5077585;28;20434;-70
2021/12/12 09:11:37;;;;;;;2.70;2.50;;;9.10;99.90;;;;;;5072892;28;20420;-70
2021/12/12 09:14:11;;;;;;;2.63;2.53;;;9.10;99.90;;;;;;5049359;28;20457;-70
2021/12/12 09:17:06;;;;;;;2.40;2.30;;;9.10;99.90;;;;;;5053977;28;20460;-71
2021/12/12 09:20:03;;;;;;;3.17;2.70;;;9.00;99.90;;;;;;5058012;28;20864;-79
2021/12/12 09:22:42;;;;;;;3.23;3.03;;;9.10;99.90;;;;;;5046499;28;20455;-68
2021/12/12 09:25:12;;;;;;;3.40;2.63;;;9.10;99.90;;;;;;5052699;28;20470;-70
2021/12/12 09:27:48;;;;;;;2.77;2.53;;;9.20;99.90;;;;;;5055058;28;20580;-70
2021/12/12 09:30:16;;;;;;;2.40;2.30;;;9.20;99.90;;;;;;5061585;28;20429;-71
2021/12/12 09:33:09;;;;;;;2.67;2.47;;;9.20;99.90;;;;;;5069791;28;20934;-70
2021/12/12 09:36:07;;;;;;;3.10;2.90;;;9.20;99.90;;;;;;5060800;28;20814;-82
2021/12/12 09:38:47;;;;;;;2.67;2.50;;;9.30;99.90;;;;;;5049112;28;20427;-79
2021/12/12 09:41:20;;;;;;;2.77;2.60;;;9.30;99.90;;;;;;5052451;28;20459;-69
2021/12/12 09:44:23;;;;;;;2.40;2.30;;;9.40;99.90;;;;;;5062602;28;20789;-69
2021/12/12 09:53:28;;;;;;;2.30;2.20;;;9.50;99.90;;;;;;5071376;28;20405;-69
2021/12/12 09:56:12;;;;;;;2.30;2.20;;;9.50;99.90;;;;;;5070966;28;20775;-69
2021/12/12 09:58:48;;;;;;;2.37;2.27;;;9.50;99.90;;;;;;5072228;28;20922;-69
2021/12/12 10:01:23;;;;;;;2.50;2.40;;;9.50;99.90;;;;;;5073321;28;20415;-69
2021/12/12 10:04:16;;;;;;;2.33;2.23;;;9.40;99.90;;;;;;5074885;28;20420;-69
2021/12/12 10:06:55;;;;;;;3.20;3.00;;;9.40;99.90;;;;;;5070818;28;20476;-73
2021/12/12 10:09:29;;;;;;;2.50;2.40;;;9.60;99.90;;;;;;5072062;28;20392;-74
2021/12/12 10:12:13;;;;;;;4.87;4.20;;;9.60;99.90;;;;;;5072114;28;20484;-73
2021/12/12 10:14:59;;;;;;;3.00;2.80;;;9.80;99.90;;;;;;5072638;28;20483;-73
2021/12/12 10:17:43;;;;;;;2.57;2.47;;;9.90;99.90;;;;;;5073329;28;20818;-73
2021/12/12 10:20:09;;;;;;;3.93;3.63;;;10.10;99.90;;;;;;5072982;28;20416;-73
2021/12/12 10:22:56;;;;;;;3.00;2.80;;;10.20;99.90;;;;;;5072421;28;20509;-78
2021/12/12 10:25:31;;;;;;;3.10;2.90;;;10.40;99.90;;;;;;5072157;28;20288;-73
2021/12/12 10:28:19;;;;;;;116.47;73.87;;;10.50;99.90;;;;;;5072456;28;20806;-73
2021/12/12 10:30:54;;;;;;;276.03;187.73;;;10.40;99.90;;;;;;5071019;28;20421;-73
2021/12/12 10:33:46;;;;;;;4.40;4.00;;;10.70;99.90;;;;;;5072859;28;20421;-75
2021/12/12 10:36:35;;;;;;;3.30;3.10;;;10.30;99.90;;;;;;5071806;28;20441;-73
2021/12/12 10:39:13;;;;;;;3.27;3.10;;;10.20;99.90;;;;;;5072609;28;20502;-73
2021/12/12 10:41:59;;;;;;;2.60;2.47;;;10.20;99.90;;;;;;5072173;28;20561;-73
2021/12/12 10:44:34;;;;;;;3.00;2.80;;;9.90;99.90;;;;;;5072677;28;20612;-74
2021/12/12 10:47:17;;;;;;;3.40;3.20;;;9.70;99.90;;;;;;5072071;28;20460;-73
2021/12/12 10:50:07;;;;;;;3.17;2.87;;;9.90;99.90;;;;;;5071627;28;20485;-74
2021/12/12 10:52:56;;;;;;;3.10;2.90;;;9.90;99.90;;;;;;5072973;28;20504;-73
2021/12/12 10:55:45;;;;;;;3.70;3.40;;;9.80;99.90;;;;;;5072394;28;20397;-73
2021/12/12 10:58:26;;;;;;;4.27;3.97;;;9.80;99.90;;;;;;5072292;28;20425;-73
2021/12/12 11:00:59;;;;;;;3.63;3.43;;;9.60;99.90;;;;;;5072006;28;20403;-74
2021/12/12 11:03:44;;;;;;;3.70;3.50;;;9.70;99.90;;;;;;5072346;28;20405;-73
2021/12/12 11:06:32;;;;;;;4.00;3.70;;;9.60;99.90;;;;;;5071382;28;20452;-74
2021/12/12 11:09:01;;;;;;;6.73;4.77;;;9.40;99.90;;;;;;5071673;28;20458;-73
2021/12/12 11:11:34;;;;;;;4.37;4.07;;;9.50;99.90;;;;;;5072042;28;20447;-74
2021/12/12 11:14:37;;;;;;;4.37;4.17;;;9.40;99.90;;;;;;5073735;28;20421;-74
2021/12/12 11:17:12;;;;;;;3.97;3.77;;;9.40;99.90;;;;;;5034710;28;20431;-73
2021/12/12 11:19:53;;;;;;;4.33;4.03;;;9.30;99.90;;;;;;5076060;28;20426;-74
2021/12/12 11:22:38;;;;;;;3.93;3.70;;;9.20;99.90;;;;;;5058759;28;20803;-74
2021/12/12 11:25:10;;;;;;;4.00;3.70;;;9.10;99.90;;;;;;5076310;28;20423;-73
2021/12/12 11:27:43;;;;;;;3.83;3.53;;;9.20;99.90;;;;;;5076529;28;20420;-73
2021/12/12 11:30:21;;;;;;;7.93;4.97;;;9.70;99.90;;;;;;5075288;28;20437;-73
2021/12/12 11:32:50;;;;;;;4.60;4.20;;;10.10;99.90;;;;;;5075781;28;20404;-73
2021/12/12 11:35:19;;;;;;;5.80;3.80;;;10.60;99.90;;;;;;5074921;28;20759;-73
2021/12/12 11:37:57;;;;;;;4.13;3.83;;;11.00;99.90;;;;;;5075280;28;20411;-73
2021/12/12 11:40:29;;;;;;;4.70;4.30;;;11.30;99.90;;;;;;5067929;28;20866;-74
2021/12/12 11:43:10;;;;;;;5.30;4.90;;;11.60;99.90;;;;;;5055502;28;20405;-73
2021/12/12 11:46:08;;;;;;;3.53;3.23;;;11.80;99.90;;;;;;5056705;28;20572;-69
2021/12/12 11:48:46;;;;;;;3.10;2.90;;;12.10;99.90;;;;;;5066328;28;20484;-70
2021/12/12 11:51:15;;;;;;;3.30;3.10;;;12.00;99.90;;;;;;5074104;28;20501;-69
2021/12/12 11:53:46;;;;;;;3.20;3.00;;;11.80;99.90;;;;;;5074571;28;20902;-70
2021/12/12 11:56:15;;;;;;;2.77;2.67;;;11.60;99.90;;;;;;5078097;28;20487;-70
2021/12/12 11:59:16;;;;;;;3.20;3.00;;;11.50;99.90;;;;;;5068853;28;20530;-72
2021/12/12 12:01:47;;;;;;;3.20;3.00;;;11.40;99.90;;;;;;5055227;28;20479;-70
2021/12/12 12:04:32;;;;;;;3.30;3.10;;;11.20;99.90;;;;;;5040558;28;20462;-69
2021/12/12 12:07:04;;;;;;;3.10;2.90;;;11.00;99.90;;;;;;5073763;28;20535;-70
2021/12/12 12:09:58;;;;;;;11.17;10.20;;;10.90;99.90;;;;;;5075657;28;20476;-69
2021/12/12 12:12:29;;;;;;;371.50;251.03;;;10.80;99.90;;;;;;5073693;28;20504;-69
2021/12/12 12:15:04;;;;;;;12.80;10.93;;;10.60;99.90;;;;;;5074459;28;20427;-70
2021/12/12 12:17:41;;;;;;;3.40;2.90;;;10.50;99.90;;;;;;5061758;28;20460;-70
2021/12/12 12:20:36;;;;;;;2.90;2.70;;;10.50;99.90;;;;;;5055177;28;20419;-70
2021/12/12 12:23:48;;;;;;;2.80;2.60;;;10.50;99.90;;;;;;5017370;28;20432;-70
2021/12/12 12:29:27;;;;;;;4.00;3.80;;;10.50;99.90;;;;;;5073895;28;20620;-70
2021/12/12 12:32:04;;;;;;;2.90;2.80;;;10.60;99.90;;;;;;5058348;28;20436;-70
2021/12/12 12:34:51;;;;;;;2.90;2.70;;;10.50;99.90;;;;;;5055101;28;20431;-69
2021/12/12 12:37:48;;;;;;;3.43;3.23;;;10.50;99.90;;;;;;5064161;28;20440;-70
2021/12/12 12:40:38;;;;;;;3.00;2.80;;;10.50;99.90;;;;;;5059479;28;20529;-70
2021/12/12 12:43:52;;;;;;;2.90;2.80;;;10.50;99.90;;;;;;5074263;28;20453;-70
2021/12/12 12:46:54;;;;;;;8.50;5.30;;;10.50;99.90;;;;;;4987715;28;21010;-69
2021/12/12 12:49:59;;;;;;;5.10;4.43;;;10.50;99.90;;;;;;5046627;28;20488;-69
2021/12/12 12:52:58;;;;;;;4.33;4.03;;;10.40;99.90;;;;;;5053299;28;20977;-70
2021/12/12 12:55:30;;;;;;;4.70;4.40;;;10.40;99.90;;;;;;5053369;28;20449;-70
2021/12/12 12:58:25;;;;;;;3.90;3.70;;;10.50;99.90;;;;;;5054087;28;20395;-70
2021/12/12 13:00:56;;;;;;;3.77;3.50;;;10.50;99.90;;;;;;5017832;28;20442;-70
2021/12/12 13:03:58;;;;;;;4.50;4.23;;;10.50;99.90;;;;;;5072386;28;20466;-69
2021/12/12 13:07:01;;;;;;;3.77;3.57;;;10.50;99.90;;;;;;5032964;28;20481;-70
2021/12/12 13:09:58;;;;;;;3.67;3.47;;;10.40;99.90;;;;;;5069017;28;20428;-69
2021/12/12 13:12:47;;;;;;;4.40;4.10;;;10.50;99.90;;;;;;5060307;28;20427;-69
2021/12/12 13:15:39;;;;;;;3.60;3.40;;;10.50;99.90;;;;;;5065096;28;20430;-70
2021/12/12 13:18:34;;;;;;;2.70;2.60;;;10.50;99.90;;;;;;5060558;28;20421;-69
2021/12/12 13:21:06;;;;;;;2.70;2.60;;;10.40;99.90;;;;;;5078842;28;20416;-70
2021/12/12 13:24:02;;;;;;;2.47;2.37;;;10.50;99.90;;;;;;5078194;28;20423;-69
2021/12/12 13:26:54;;;;;;;3.00;2.90;;;10.50;99.90;;;;;;5059564;28;20451;-69
2021/12/12 13:29:32;;;;;;;3.00;2.90;;;10.50;99.90;;;;;;5073571;28;20890;-69
2021/12/12 13:32:14;;;;;;;2.90;2.70;;;10.50;99.90;;;;;;5071908;28;20403;-69
2021/12/12 13:35:05;;;;;;;2.97;2.80;;;10.60;99.90;;;;;;5060376;28;20430;-70
2021/12/12 13:37:45;;;;;;;2.87;2.77;;;10.60;99.90;;;;;;5054574;28;20426;-68
2021/12/12 13:40:31;;;;;;;3.00;2.90;;;10.60;99.90;;;;;;5073086;28;20412;-68
2021/12/12 13:43:08;;;;;;;3.70;3.43;;;10.70;99.90;;;;;;5059718;28;20419;-69
2021/12/12 13:46:12;;;;;;;3.33;3.13;;;10.70;99.90;;;;;;5053854;28;20485;-69
2021/12/12 13:48:58;;;;;;;2.97;2.87;;;10.70;99.90;;;;;;5053714;28;20490;-68
2021/12/12 13:51:30;;;;;;;2.87;2.77;;;10.70;99.90;;;;;;5059173;28;20517;-69
2021/12/12 13:54:21;;;;;;;3.10;3.00;;;10.70;99.90;;;;;;5070714;28;20409;-69